createdAt,value
2018-06-10T14:07:51.979Z,438
2018-06-10T14:08:53.364Z,427
2018-06-10T14:09:54.749Z,416
2018-06-10T14:10:56.120Z,410
2018-06-10T14:11:57.494Z,416
2018-06-10T14:12:58.877Z,410
2018-06-10T14:14:00.264Z,416
2018-06-10T14:15:01.675Z,427
2018-06-10T14:16:03.068Z,461
2018-06-10T14:17:04.435Z,495
2018-06-10T14:18:05.839Z,579
2018-06-10T14:19:07.232Z,995
2018-06-10T14:20:08.611Z,1321
2018-06-10T14:21:09.986Z,1541
2018-06-10T14:22:11.360Z,1608
2018-06-10T14:23:12.769Z,1170
2018-06-10T14:24:14.118Z,1867
2018-06-10T14:25:15.494Z,1890
2018-06-10T14:26:16.875Z,1760
2018-06-10T14:27:18.258Z,1766
2018-06-10T14:28:19.638Z,1670
2018-06-10T14:29:21.021Z,1687
2018-06-10T14:30:22.414Z,1395
2018-06-10T14:31:23.769Z,1563
2018-06-10T14:32:25.161Z,2036
2018-06-10T14:33:26.546Z,2593
2018-06-10T14:34:27.948Z,2728
2018-06-10T14:35:29.327Z,2525
2018-06-10T14:36:30.696Z,2238
2018-06-10T14:37:32.579Z,2458
2018-06-10T14:38:33.960Z,2351
2018-06-10T14:39:35.326Z,956
2018-06-10T14:40:36.715Z,1057
2018-06-10T14:41:38.100Z,1535
2018-06-10T14:42:39.490Z,2030
2018-06-10T14:43:40.860Z,1108
2018-06-10T14:44:42.248Z,1288
2018-06-10T14:45:43.611Z,765
2018-06-10T14:46:45.004Z,742
2018-06-10T14:47:46.378Z,1181
2018-06-10T14:48:47.749Z,1321
2018-06-10T14:49:49.161Z,1968
2018-06-10T14:50:50.516Z,1850
2018-06-10T14:51:51.894Z,978
2018-06-10T14:52:53.266Z,1631
2018-06-10T14:53:54.644Z,1130
2018-06-10T14:54:56.038Z,1327
2018-06-10T14:55:57.410Z,765
2018-06-10T14:56:58.798Z,1389
2018-06-10T14:58:00.176Z,1473
2018-06-10T14:59:01.584Z,1642
2018-06-10T15:00:03.022Z,1603
2018-06-10T15:01:04.403Z,1603
2018-06-10T15:02:05.791Z,1603
2018-06-10T15:03:07.168Z,1541
2018-06-10T15:04:08.559Z,1513
2018-06-10T15:05:09.940Z,1501
2018-06-10T15:06:11.321Z,1535
2018-06-10T15:07:12.709Z,1580
2018-06-10T15:08:14.116Z,1625
2018-06-10T15:09:15.497Z,1530
2018-06-10T15:10:16.874Z,1468
2018-06-10T15:11:18.250Z,663
2018-06-10T15:12:19.637Z,1440
2018-06-10T15:13:21.013Z,1445
2018-06-10T15:14:22.399Z,1507
2018-06-10T15:15:23.769Z,1490
2018-06-10T15:16:25.157Z,1552
2018-06-10T15:17:26.536Z,1513
2018-06-10T15:18:27.931Z,1563
2018-06-10T15:19:29.327Z,1479
2018-06-10T15:20:30.721Z,1468
2018-06-10T15:21:32.975Z,1496
2018-06-10T15:22:35.961Z,1530
2018-06-10T15:23:37.350Z,1485
2018-06-10T15:24:38.750Z,1456
2018-06-10T15:25:40.135Z,1552
2018-06-10T15:26:41.517Z,1569
2018-06-10T15:27:42.906Z,1490
2018-06-10T15:28:44.297Z,1468
2018-06-10T15:29:45.680Z,1451
2018-06-10T15:30:47.035Z,1395
2018-06-10T15:31:48.421Z,1361
2018-06-10T15:32:49.821Z,1282
2018-06-10T15:33:51.251Z,1243
2018-06-10T15:34:52.646Z,1383
2018-06-10T15:35:54.077Z,1642
2018-06-10T15:36:55.454Z,1642
2018-06-10T15:37:56.881Z,1530
2018-06-10T15:38:58.262Z,1456
2018-06-10T15:39:59.682Z,1445
2018-06-10T15:41:01.075Z,1440
2018-06-10T15:42:02.456Z,1440
2018-06-10T15:43:03.848Z,1468
2018-06-10T15:44:05.230Z,1440
2018-06-10T15:45:06.615Z,1366
2018-06-10T15:46:08.005Z,1383
2018-06-10T15:47:09.437Z,1361
2018-06-10T15:48:10.841Z,1428
2018-06-10T15:49:12.221Z,1485
2018-06-10T15:50:13.663Z,1496
2018-06-10T15:51:14.992Z,1445
2018-06-10T15:52:16.376Z,1383
2018-06-10T15:53:17.770Z,1366
2018-06-10T15:54:19.145Z,1389
2018-06-10T15:55:20.542Z,1383
2018-06-10T15:56:21.932Z,1355
2018-06-10T15:57:23.323Z,1378
2018-06-10T15:58:24.716Z,1423
2018-06-10T15:59:26.096Z,1473
2018-06-10T16:00:27.502Z,1366
2018-06-10T16:01:28.895Z,1451
2018-06-10T16:02:30.286Z,1462
2018-06-10T16:03:31.680Z,1248
2018-06-10T16:04:33.056Z,1215
2018-06-10T16:05:34.460Z,1136
2018-06-10T16:06:35.840Z,1361
2018-06-10T16:07:37.238Z,1395
2018-06-10T16:08:38.612Z,1417
2018-06-10T16:09:40.012Z,1428
2018-06-10T16:10:41.382Z,1344
2018-06-10T16:11:42.782Z,1333
2018-06-10T16:12:44.161Z,1355
2018-06-10T16:13:45.546Z,1350
2018-06-10T16:14:46.937Z,1316
2018-06-10T16:15:48.343Z,1113
2018-06-10T16:16:49.734Z,933
2018-06-10T16:17:51.102Z,523
2018-06-10T16:18:52.492Z,1141
2018-06-10T16:19:53.881Z,1141
2018-06-10T16:20:55.257Z,517
2018-06-10T16:21:56.651Z,540
2018-06-10T16:22:58.036Z,939
2018-06-10T16:23:59.416Z,973
2018-06-10T16:25:00.805Z,978
2018-06-10T16:26:02.203Z,1001
2018-06-10T16:27:03.573Z,1040
2018-06-10T16:28:05.716Z,1108
2018-06-10T16:29:07.117Z,1141
2018-06-10T16:30:08.502Z,1141
2018-06-10T16:31:09.896Z,1164
2018-06-10T16:32:13.596Z,1181
2018-06-10T16:33:14.973Z,1153
2018-06-10T16:34:17.093Z,708
2018-06-10T16:35:18.487Z,1035
2018-06-10T16:36:19.871Z,978
2018-06-10T16:37:21.252Z,916
2018-06-10T16:38:23.367Z,855
2018-06-10T16:39:24.746Z,787
2018-06-10T16:40:26.125Z,736
2018-06-10T16:41:27.516Z,697
2018-06-10T16:42:30.248Z,658
2018-06-10T16:43:30.993Z,624
2018-06-10T16:44:33.132Z,596
2018-06-10T16:45:35.245Z,579
2018-06-10T16:46:35.863Z,556
2018-06-10T16:47:37.295Z,534
2018-06-10T16:48:38.677Z,511
2018-06-10T16:49:40.071Z,495
2018-06-10T16:50:41.457Z,489
2018-06-10T16:51:42.861Z,483
2018-06-10T16:52:44.246Z,466
2018-06-10T16:53:45.636Z,450
2018-06-10T16:54:47.025Z,433
2018-06-10T16:55:49.850Z,433
2018-06-10T16:56:51.238Z,421
2018-06-10T16:57:54.003Z,416
2018-06-10T16:58:55.395Z,337
2018-06-10T16:59:56.793Z,343
2018-06-10T17:00:58.177Z,337
2018-06-10T17:02:00.292Z,388
2018-06-10T17:03:01.706Z,393
2018-06-10T17:04:03.136Z,348
2018-06-10T17:05:04.468Z,354
2018-06-10T17:06:05.876Z,360
2018-06-10T17:07:07.262Z,399
2018-06-10T17:08:10.058Z,388
2018-06-10T17:09:11.464Z,371
2018-06-10T17:10:14.925Z,343
2018-06-10T17:11:16.306Z,320
2018-06-10T17:12:17.697Z,298
2018-06-10T17:13:19.155Z,281
2018-06-10T17:14:22.061Z,264
2018-06-10T17:15:23.436Z,253
2018-06-10T17:16:25.587Z,236
2018-06-10T17:17:26.951Z,225
2018-06-10T17:18:31.602Z,213
2018-06-10T17:19:32.982Z,208
2018-06-10T17:20:34.357Z,202
2018-06-10T17:21:35.767Z,202
2018-06-10T17:22:37.144Z,202
2018-06-10T17:23:38.586Z,202
2018-06-10T17:24:39.948Z,196
2018-06-10T17:25:41.322Z,196
2018-06-10T17:26:42.711Z,196
2018-06-10T17:27:44.088Z,196
2018-06-10T17:28:45.465Z,196
2018-06-10T17:29:46.864Z,196
2018-06-10T17:30:48.270Z,202
2018-06-10T17:31:49.648Z,202
2018-06-10T17:32:51.022Z,202
2018-06-10T17:33:52.411Z,196
2018-06-10T17:34:53.792Z,180
2018-06-10T17:35:55.165Z,163
2018-06-10T17:36:56.551Z,140
2018-06-10T17:37:57.945Z,118
2018-06-10T17:38:59.318Z,95
2018-06-10T17:40:00.698Z,78
2018-06-10T17:41:02.577Z,67
2018-06-10T17:42:03.951Z,61
2018-06-10T17:43:05.362Z,61
2018-06-10T17:44:06.741Z,56
2018-06-10T17:45:08.111Z,56
2018-06-10T17:46:09.495Z,56
2018-06-10T17:47:10.866Z,50
2018-06-10T17:48:12.241Z,50
2018-06-10T17:49:13.617Z,50
2018-06-10T17:50:14.982Z,50
2018-06-10T17:51:16.373Z,56
2018-06-10T17:52:17.789Z,61
2018-06-10T17:53:19.121Z,67
2018-06-10T17:54:20.497Z,78
2018-06-10T17:55:21.866Z,84
2018-06-10T17:56:23.241Z,90
2018-06-10T17:57:24.631Z,101
2018-06-10T17:58:26.000Z,106
2018-06-10T17:59:28.015Z,106
2018-06-10T18:00:29.991Z,106
2018-06-10T18:02:36.893Z,106
2018-06-10T18:03:39.166Z,101
2018-06-10T18:04:41.223Z,101
2018-06-10T18:05:43.193Z,95
2018-06-10T18:06:45.144Z,95
2018-06-10T18:07:47.494Z,90
2018-06-10T18:08:49.680Z,90
2018-06-10T18:09:51.883Z,84
2018-06-10T18:10:53.928Z,84
2018-06-10T18:11:55.895Z,84
2018-06-10T18:12:58.181Z,78
2018-06-10T18:13:59.568Z,78
2018-06-10T18:15:01.758Z,78
2018-06-10T18:16:03.811Z,73
2018-06-10T18:17:05.898Z,73
2018-06-10T18:18:08.244Z,73
2018-06-10T18:19:10.481Z,67
2018-06-10T18:20:12.618Z,67
2018-06-10T18:21:14.710Z,67
2018-06-10T18:22:16.037Z,67
2018-06-10T18:23:17.423Z,67
2018-06-10T18:24:18.800Z,73
2018-06-10T18:25:20.932Z,73
2018-06-10T18:26:22.942Z,73
2018-06-10T18:27:24.871Z,78
2018-06-10T18:28:27.182Z,78
2018-06-10T18:29:29.411Z,84
2018-06-10T18:30:31.611Z,84
2018-06-10T18:31:33.602Z,78
2018-06-10T18:32:35.517Z,73
2018-06-10T18:33:37.841Z,73
2018-06-10T18:34:40.041Z,67
2018-06-10T18:35:42.178Z,67
2018-06-10T18:36:44.187Z,73
2018-06-10T18:37:46.102Z,78
2018-06-10T18:38:48.436Z,78
2018-06-10T18:39:50.649Z,78
2018-06-10T18:40:52.713Z,84
2018-06-10T18:41:54.698Z,90
2018-06-10T18:42:56.606Z,95
2018-06-10T18:43:58.943Z,95
2018-06-10T18:45:01.157Z,95
2018-06-10T18:46:03.244Z,95
2018-06-10T18:47:05.203Z,95
2018-06-10T18:48:07.123Z,90
2018-06-10T18:49:09.432Z,90
2018-06-10T18:50:11.658Z,84
2018-06-10T18:51:13.700Z,84
2018-06-10T18:52:15.707Z,78
2018-06-10T18:53:17.662Z,73
2018-06-10T18:54:19.962Z,73
2018-06-10T18:55:22.193Z,73
2018-06-10T18:56:24.229Z,73
2018-06-10T18:57:26.211Z,73
2018-06-10T18:58:27.603Z,73
2018-06-10T18:59:28.978Z,73
2018-06-10T19:00:30.358Z,73
2018-06-10T19:01:32.477Z,73
2018-06-10T19:02:34.497Z,73
2018-06-10T19:03:36.407Z,67
2018-06-10T19:04:38.727Z,61
2018-06-10T19:05:40.923Z,61
2018-06-10T19:06:43.028Z,56
2018-06-10T19:07:45.403Z,56
2018-06-10T19:08:47.237Z,50
2018-06-10T19:09:49.568Z,45
2018-06-10T19:10:51.729Z,39
2018-06-10T19:11:53.774Z,33
2018-06-10T19:12:55.739Z,28
2018-06-10T19:13:57.669Z,28
2018-06-10T19:15:00.003Z,22
2018-06-10T19:16:02.217Z,16
2018-06-10T19:17:04.254Z,16
2018-06-10T19:18:06.224Z,11
2018-06-10T19:19:08.176Z,11
2018-06-10T19:20:10.504Z,11
2018-06-10T19:21:12.753Z,11
2018-06-10T19:22:14.770Z,5
2018-06-10T19:23:16.743Z,5
2018-06-10T19:24:18.677Z,5
2018-06-10T19:25:20.990Z,5
2018-06-10T19:26:23.185Z,5
2018-06-10T19:27:25.238Z,5
2018-06-10T19:28:27.251Z,5
2018-06-10T19:29:29.166Z,5
2018-06-10T19:30:32.133Z,5
2018-06-10T19:31:33.737Z,5
2018-06-10T19:32:35.768Z,5
2018-06-10T19:33:37.756Z,0
2018-06-10T19:34:39.674Z,0
2018-06-10T19:35:41.044Z,0
2018-06-10T19:36:42.431Z,0
2018-06-10T19:37:44.522Z,0
2018-06-10T19:38:45.897Z,0
2018-06-10T19:39:47.799Z,0
2018-06-10T19:40:49.164Z,0
2018-06-10T19:41:50.566Z,0
2018-06-10T19:42:52.659Z,0
2018-06-10T19:43:54.032Z,0
2018-06-10T19:44:55.411Z,0
2018-06-10T19:45:56.788Z,0
2018-06-10T19:46:58.983Z,0
2018-06-10T19:48:00.368Z,0
2018-06-10T19:49:01.760Z,0
2018-06-10T19:50:03.124Z,0
2018-06-10T19:51:04.490Z,0
2018-06-10T19:52:06.633Z,0
2018-06-10T19:53:08.651Z,0
2018-06-10T19:54:10.553Z,0
2018-06-10T19:55:12.909Z,0
2018-06-10T19:56:15.174Z,0
2018-06-10T19:57:17.309Z,0
2018-06-10T19:58:19.313Z,0
2018-06-10T19:59:20.894Z,0
2018-06-10T20:00:23.255Z,0
2018-06-10T20:01:25.553Z,0
2018-06-10T20:02:27.743Z,0
2018-06-10T20:03:29.829Z,0
2018-06-10T20:04:31.800Z,0
2018-06-10T20:05:33.170Z,0
2018-06-10T20:06:34.575Z,0
2018-06-10T20:07:35.942Z,0
2018-06-10T20:08:38.044Z,0
2018-06-10T20:09:40.036Z,0
2018-06-10T20:10:41.960Z,0
2018-06-10T20:11:44.254Z,0
2018-06-10T20:12:46.461Z,0
2018-06-10T20:13:48.563Z,0
2018-06-10T20:14:49.949Z,0
2018-06-10T20:15:51.341Z,0
2018-06-10T20:16:52.689Z,0
2018-06-10T20:17:54.876Z,0
2018-06-10T20:18:56.964Z,0
2018-06-10T20:19:58.985Z,0
2018-06-10T20:21:00.872Z,0
2018-06-10T20:22:03.194Z,0
2018-06-10T20:23:03.583Z,0
2018-06-10T20:24:05.721Z,0
2018-06-10T20:25:07.759Z,0
2018-06-10T20:26:10.016Z,0
2018-06-10T20:27:11.393Z,0
2018-06-10T20:28:13.440Z,0
2018-06-10T20:29:15.378Z,0
2018-06-10T20:30:17.735Z,0
2018-06-10T20:31:18.104Z,0
2018-06-10T20:32:20.264Z,0
2018-06-10T20:33:22.308Z,0
2018-06-10T20:34:24.259Z,0
2018-06-10T20:35:26.614Z,0
2018-06-10T20:36:27.980Z,0
2018-06-10T20:37:29.354Z,0
2018-06-10T20:38:30.726Z,0
2018-06-10T20:39:32.108Z,0
2018-06-10T20:40:33.478Z,0
2018-06-10T20:41:34.850Z,0
2018-06-10T20:42:36.223Z,0
2018-06-10T20:43:37.580Z,0
2018-06-10T20:44:38.948Z,0
2018-06-10T20:45:40.310Z,0
2018-06-10T20:46:41.682Z,0
2018-06-10T20:47:43.043Z,0
2018-06-10T20:48:44.442Z,0
2018-06-10T20:49:45.785Z,0
2018-06-10T20:50:47.149Z,0
2018-06-10T20:51:48.513Z,0
2018-06-10T20:52:49.873Z,0
2018-06-10T20:53:51.246Z,0
2018-06-10T20:54:52.615Z,0
2018-06-10T20:55:53.984Z,0
2018-06-10T20:56:55.349Z,0
2018-06-10T20:57:56.728Z,0
2018-06-10T20:58:58.122Z,0
2018-06-10T20:59:59.476Z,0
2018-06-10T21:01:00.848Z,0
2018-06-10T21:02:02.206Z,0
2018-06-10T21:03:03.577Z,0
2018-06-10T21:04:04.944Z,0
2018-06-10T21:05:06.309Z,0
2018-06-10T21:06:07.678Z,0
2018-06-10T21:07:09.033Z,0
2018-06-10T21:08:10.442Z,0
2018-06-10T21:09:11.769Z,0
2018-06-10T21:10:13.134Z,0
2018-06-10T21:11:14.494Z,0
2018-06-10T21:12:15.871Z,0
2018-06-10T21:13:17.226Z,0
2018-06-10T21:14:18.591Z,0
2018-06-10T21:15:19.941Z,0
2018-06-10T21:16:21.323Z,0
2018-06-10T21:17:22.719Z,0
2018-06-10T21:18:24.081Z,0
2018-06-10T21:19:25.463Z,0
2018-06-10T21:20:26.820Z,0
2018-06-10T21:21:28.180Z,0
2018-06-10T21:22:29.556Z,0
2018-06-10T21:23:30.925Z,0
2018-06-10T21:24:32.898Z,0
2018-06-10T21:25:34.275Z,0
2018-06-10T21:26:35.669Z,0
2018-06-10T21:27:37.029Z,0
2018-06-10T21:28:38.388Z,0
2018-06-10T21:29:39.756Z,0
2018-06-10T21:30:41.123Z,0
2018-06-10T21:31:42.494Z,0
2018-06-10T21:32:43.866Z,0
2018-06-10T21:33:45.241Z,0
2018-06-10T21:34:46.621Z,0
2018-06-10T21:35:47.986Z,0
2018-06-10T21:36:49.350Z,0
2018-06-10T21:37:50.734Z,0
2018-06-10T21:38:52.104Z,0
2018-06-10T21:39:53.464Z,0
2018-06-10T21:40:54.831Z,0
2018-06-10T21:41:56.201Z,0
2018-06-10T21:42:57.564Z,0
2018-06-10T21:43:58.928Z,0
2018-06-10T21:45:00.300Z,0
2018-06-10T21:46:01.699Z,0
2018-06-10T21:47:03.064Z,0
2018-06-10T21:48:04.438Z,0
2018-06-10T21:49:05.807Z,0
2018-06-10T21:50:07.167Z,0
2018-06-10T21:51:08.529Z,0
2018-06-10T21:52:09.884Z,0
2018-06-10T21:53:11.261Z,0
2018-06-10T21:54:12.676Z,0
2018-06-10T21:55:13.996Z,0
2018-06-10T21:56:15.352Z,0
2018-06-10T21:57:16.720Z,0
2018-06-10T21:58:18.113Z,0
2018-06-10T21:59:19.448Z,0
2018-06-10T22:00:20.810Z,0
2018-06-10T22:01:22.185Z,0
2018-06-10T22:02:23.539Z,0
2018-06-10T22:03:24.918Z,0
2018-06-10T22:04:26.278Z,0
2018-06-10T22:05:27.635Z,0
2018-06-10T22:06:29.009Z,0
2018-06-10T22:07:30.375Z,0
2018-06-10T22:08:32.636Z,0
2018-06-10T22:09:34.001Z,0
2018-06-10T22:10:35.371Z,0
2018-06-10T22:11:36.738Z,0
2018-06-10T22:12:38.102Z,0
2018-06-10T22:13:39.471Z,0
2018-06-10T22:14:40.834Z,0
2018-06-10T22:15:42.196Z,0
2018-06-10T22:16:43.591Z,0
2018-06-10T22:17:44.959Z,0
2018-06-10T22:18:46.319Z,0
2018-06-10T22:19:47.675Z,0
2018-06-10T22:20:49.036Z,0
2018-06-10T22:21:50.398Z,0
2018-06-10T22:22:51.765Z,0
2018-06-10T22:23:53.131Z,0
2018-06-10T22:24:54.516Z,0
2018-06-10T22:25:55.874Z,0
2018-06-10T22:26:57.235Z,0
2018-06-10T22:27:58.623Z,0
2018-06-10T22:28:59.988Z,0
2018-06-10T22:30:02.256Z,0
2018-06-10T22:31:02.671Z,0
2018-06-10T22:32:04.064Z,0
2018-06-10T22:33:05.407Z,0
2018-06-10T22:34:06.758Z,0
2018-06-10T22:35:08.120Z,0
2018-06-10T22:36:09.486Z,0
2018-06-10T22:37:10.845Z,0
2018-06-10T22:38:12.207Z,0
2018-06-10T22:39:13.577Z,0
2018-06-10T22:40:14.940Z,0
2018-06-10T22:41:16.303Z,0
2018-06-10T22:42:17.689Z,0
2018-06-10T22:43:19.058Z,0
2018-06-10T22:44:20.461Z,0
2018-06-10T22:45:21.829Z,0
2018-06-10T22:46:23.235Z,0
2018-06-10T22:47:24.595Z,0
2018-06-10T22:48:25.966Z,0
2018-06-10T22:49:27.362Z,0
2018-06-10T22:50:28.734Z,0
2018-06-10T22:51:30.100Z,0
2018-06-10T22:52:31.516Z,0
2018-06-10T22:53:32.897Z,0
2018-06-10T22:54:34.270Z,0
2018-06-10T22:55:35.627Z,0
2018-06-10T22:56:36.980Z,0
2018-06-10T22:57:38.354Z,0
2018-06-10T22:58:39.716Z,0
2018-06-10T22:59:41.079Z,0
2018-06-10T23:00:42.440Z,0
2018-06-10T23:01:43.811Z,0
2018-06-10T23:02:45.175Z,0
2018-06-10T23:03:46.533Z,0
2018-06-10T23:04:47.893Z,0
2018-06-10T23:05:49.268Z,0
2018-06-10T23:06:50.631Z,0
2018-06-10T23:07:52.005Z,0
2018-06-10T23:08:53.362Z,0
2018-06-10T23:09:54.726Z,0
2018-06-10T23:10:56.089Z,0
2018-06-10T23:11:57.456Z,0
2018-06-10T23:12:58.816Z,0
2018-06-10T23:14:00.174Z,0
2018-06-10T23:15:01.566Z,0
2018-06-10T23:16:02.927Z,0
2018-06-10T23:17:04.282Z,0
2018-06-10T23:18:05.650Z,0
2018-06-10T23:19:07.012Z,0
2018-06-10T23:20:08.370Z,0
2018-06-10T23:21:09.751Z,0
2018-06-10T23:22:11.111Z,0
2018-06-10T23:23:12.470Z,0
2018-06-10T23:24:13.841Z,0
2018-06-10T23:25:15.210Z,0
2018-06-10T23:26:16.575Z,0
2018-06-10T23:27:17.954Z,0
2018-06-10T23:28:19.302Z,0
2018-06-10T23:29:20.675Z,0
2018-06-10T23:30:22.051Z,0
2018-06-10T23:31:23.410Z,0
2018-06-10T23:32:24.772Z,0
2018-06-10T23:33:26.141Z,0
2018-06-10T23:34:27.499Z,0
2018-06-10T23:35:28.877Z,0
2018-06-10T23:36:30.227Z,0
2018-06-10T23:37:32.415Z,0
2018-06-10T23:38:33.781Z,0
2018-06-10T23:39:35.141Z,0
2018-06-10T23:40:36.497Z,0
2018-06-10T23:41:37.865Z,0
2018-06-10T23:42:39.228Z,0
2018-06-10T23:43:40.590Z,0
2018-06-10T23:44:41.950Z,0
2018-06-10T23:45:43.309Z,0
2018-06-10T23:46:44.673Z,0
2018-06-10T23:47:46.041Z,0
2018-06-10T23:48:47.410Z,0
2018-06-10T23:49:48.782Z,0
2018-06-10T23:50:50.141Z,0
2018-06-10T23:51:51.507Z,0
2018-06-10T23:52:52.870Z,0
2018-06-10T23:53:54.224Z,0
2018-06-10T23:54:55.582Z,0
2018-06-10T23:55:56.940Z,0
2018-06-10T23:56:58.322Z,0
2018-06-10T23:57:59.673Z,0
2018-06-10T23:59:01.041Z,0
